createdAt,value
2023-03-31T00:00:52.887Z,8.9487
2023-03-31T00:01:53.116Z,9.1015
2023-03-31T00:02:53.251Z,9.0945
2023-03-31T00:03:53.466Z,9.0200
2023-03-31T00:04:53.762Z,9.0058
2023-03-31T00:05:53.886Z,9.0621
2023-03-31T00:06:54.060Z,9.1897
2023-03-31T00:07:54.708Z,9.1338
2023-03-31T00:08:54.967Z,9.1357
2023-03-31T00:10:03.663Z,9.1340
2023-03-31T00:10:56.290Z,9.1165
2023-03-31T00:11:56.413Z,9.0746
2023-03-31T00:12:56.587Z,9.0730
2023-03-31T00:13:56.782Z,9.1284
2023-03-31T00:14:56.928Z,9.1235
2023-03-31T00:15:57.190Z,9.1387
2023-03-31T00:16:57.345Z,9.1404
2023-03-31T00:17:57.552Z,9.1369
2023-03-31T00:18:57.783Z,9.1927
2023-03-31T00:19:57.908Z,8.9945
2023-03-31T00:20:59.395Z,9.0701
2023-03-31T00:21:58.212Z,9.1845
2023-03-31T00:22:58.471Z,9.1485
2023-03-31T00:23:58.666Z,9.1227
2023-03-31T00:24:58.861Z,9.2853
2023-03-31T00:25:59.100Z,9.3235
2023-03-31T00:26:59.320Z,9.3753
2023-03-31T00:27:59.523Z,9.3780
2023-03-31T00:28:59.702Z,9.3412
2023-03-31T00:29:59.845Z,9.3624
2023-03-31T00:30:59.944Z,9.3044
2023-03-31T00:32:00.215Z,9.3508
2023-03-31T00:33:00.479Z,9.3776
2023-03-31T00:34:00.795Z,9.3228
2023-03-31T00:35:00.936Z,9.3615
2023-03-31T00:36:01.092Z,9.4012
2023-03-31T00:37:01.226Z,9.3640
2023-03-31T00:38:01.341Z,9.3415
2023-03-31T00:39:01.494Z,9.4077
2023-03-31T00:40:01.653Z,9.3988
2023-03-31T00:41:01.734Z,9.2996
2023-03-31T00:42:02.012Z,9.2923
2023-03-31T00:43:03.064Z,9.2658
2023-03-31T00:44:03.240Z,9.2596
2023-03-31T00:45:03.466Z,9.1105
2023-03-31T00:46:03.916Z,9.2037
2023-03-31T00:47:04.884Z,9.3709
2023-03-31T00:48:05.158Z,9.3364
2023-03-31T00:49:05.325Z,9.2458
2023-03-31T00:50:05.480Z,9.2250
2023-03-31T00:51:05.640Z,9.2592
2023-03-31T00:52:05.823Z,9.2283
2023-03-31T00:53:06.049Z,9.2348
2023-03-31T00:54:06.309Z,9.1479
2023-03-31T00:55:06.415Z,9.3154
2023-03-31T00:56:06.715Z,9.3397
2023-03-31T00:57:07.388Z,9.2699
2023-03-31T00:58:07.554Z,9.1500
2023-03-31T00:59:07.770Z,9.0902
2023-03-31T01:00:07.899Z,9.1360
2023-03-31T01:01:08.088Z,9.1033
2023-03-31T01:02:08.220Z,9.0980
2023-03-31T01:03:08.368Z,9.1676
2023-03-31T01:04:08.692Z,9.1441
2023-03-31T01:05:08.868Z,9.2599
2023-03-31T01:06:09.147Z,9.2357
2023-03-31T01:07:09.361Z,9.3252
2023-03-31T01:08:09.555Z,9.3314
2023-03-31T01:09:09.664Z,9.2467
2023-03-31T01:10:09.836Z,9.1080
2023-03-31T01:11:10.023Z,9.1291
2023-03-31T01:12:10.165Z,9.0637
2023-03-31T01:13:10.465Z,9.0967
2023-03-31T01:14:10.592Z,9.0820
2023-03-31T01:15:10.769Z,9.0638
2023-03-31T01:16:10.917Z,9.0347
2023-03-31T01:17:11.230Z,8.9243
2023-03-31T01:18:11.510Z,9.0627
2023-03-31T01:19:11.787Z,9.0894
2023-03-31T01:20:12.031Z,9.0297
2023-03-31T01:21:12.396Z,8.9927
2023-03-31T01:22:12.613Z,9.0235
2023-03-31T01:23:12.866Z,9.0741
2023-03-31T01:24:13.065Z,8.9622
2023-03-31T01:25:13.351Z,9.0581
2023-03-31T01:26:13.507Z,9.0556
2023-03-31T01:27:13.733Z,9.0045
2023-03-31T01:28:13.952Z,8.8355
2023-03-31T01:29:14.174Z,8.6242
2023-03-31T01:30:14.602Z,8.5480
2023-03-31T01:31:14.851Z,8.5212
2023-03-31T01:32:15.036Z,8.5128
2023-03-31T01:33:15.155Z,8.6015
2023-03-31T01:34:15.371Z,8.7129
2023-03-31T01:35:15.503Z,8.7438
2023-03-31T01:36:15.760Z,8.8606
2023-03-31T01:37:15.858Z,8.8572
2023-03-31T01:38:16.086Z,8.8631
2023-03-31T01:39:16.246Z,9.0316
2023-03-31T01:40:16.410Z,9.0178
2023-03-31T01:41:16.917Z,8.9642
2023-03-31T01:42:18.053Z,8.9864
2023-03-31T01:43:18.298Z,9.0347
2023-03-31T01:44:18.418Z,8.9982
2023-03-31T01:45:18.611Z,9.0199
2023-03-31T01:46:18.788Z,9.0424
2023-03-31T01:47:19.008Z,9.0928
2023-03-31T01:48:19.160Z,9.0367
2023-03-31T01:49:19.341Z,9.0368
2023-03-31T01:50:19.520Z,8.9888
2023-03-31T01:52:22.108Z,9.0166
2023-03-31T01:53:22.488Z,8.9865
2023-03-31T01:54:22.887Z,8.8701
2023-03-31T01:55:23.076Z,8.8674
2023-03-31T01:56:23.273Z,8.8372
2023-03-31T01:57:23.535Z,8.8103
2023-03-31T01:58:23.801Z,8.7585
2023-03-31T01:59:23.952Z,8.7324
2023-03-31T02:00:24.118Z,8.7124
2023-03-31T02:01:24.396Z,8.7591
2023-03-31T02:02:24.684Z,8.8407
2023-03-31T02:03:24.987Z,8.7463
2023-03-31T02:04:25.277Z,8.7324
2023-03-31T02:05:25.396Z,8.6393
2023-03-31T02:06:25.562Z,8.6167
2023-03-31T02:07:25.704Z,8.6643
2023-03-31T02:08:25.820Z,8.6354
2023-03-31T02:09:25.931Z,8.6327
2023-03-31T02:10:26.113Z,8.7596
2023-03-31T02:11:26.286Z,8.6829
2023-03-31T02:12:26.423Z,8.5624
2023-03-31T02:13:26.761Z,8.6407
2023-03-31T02:14:26.974Z,8.5658
2023-03-31T02:15:27.136Z,8.5155
2023-03-31T02:16:27.321Z,8.4549
2023-03-31T02:17:27.586Z,8.5340
2023-03-31T02:18:27.746Z,8.5508
2023-03-31T02:19:27.922Z,8.5051
2023-03-31T02:20:28.098Z,8.4843
2023-03-31T02:21:28.273Z,8.4384
2023-03-31T02:22:28.409Z,8.4404
2023-03-31T02:23:28.626Z,8.5082
2023-03-31T02:24:28.989Z,8.4058
2023-03-31T02:25:29.153Z,8.3653
2023-03-31T02:26:29.321Z,8.3519
2023-03-31T02:27:30.305Z,8.3563
2023-03-31T02:28:30.554Z,8.3683
2023-03-31T02:29:30.722Z,8.3201
2023-03-31T02:30:30.900Z,8.4364
2023-03-31T02:31:31.044Z,8.3844
2023-03-31T02:32:31.252Z,8.4820
2023-03-31T02:33:31.408Z,8.4517
2023-03-31T02:35:32.132Z,8.3338
2023-03-31T02:36:32.306Z,8.3477
2023-03-31T02:37:32.467Z,8.5430
2023-03-31T02:38:32.644Z,8.4743
2023-03-31T02:39:32.826Z,8.5448
2023-03-31T02:40:33.019Z,8.5780
2023-03-31T02:41:33.241Z,8.5683
2023-03-31T02:42:33.371Z,8.5956
2023-03-31T02:43:33.633Z,8.6740
2023-03-31T02:44:33.786Z,8.6783
2023-03-31T02:45:33.995Z,8.5783
2023-03-31T02:46:34.154Z,8.5847
2023-03-31T02:47:34.698Z,8.5432
2023-03-31T02:48:34.878Z,8.6362
2023-03-31T02:49:35.035Z,8.6242
2023-03-31T02:50:35.173Z,8.6589
2023-03-31T02:51:35.479Z,8.7028
2023-03-31T02:52:35.711Z,8.7216
2023-03-31T02:53:35.911Z,8.6461
2023-03-31T02:54:36.061Z,8.6098
2023-03-31T02:55:36.322Z,8.5887
2023-03-31T02:56:36.488Z,8.6436
2023-03-31T02:57:36.639Z,8.6343
2023-03-31T02:58:36.835Z,8.6187
2023-03-31T02:59:36.989Z,8.5905
2023-03-31T03:00:37.233Z,8.5809
2023-03-31T03:01:37.323Z,8.5793
2023-03-31T03:02:37.532Z,8.5659
2023-03-31T03:03:37.830Z,8.5142
2023-03-31T03:04:37.968Z,8.4811
2023-03-31T03:05:38.210Z,8.4800
2023-03-31T03:06:38.337Z,8.4749
2023-03-31T03:07:38.480Z,8.4425
2023-03-31T03:08:38.668Z,8.4157
2023-03-31T03:09:38.837Z,8.3793
2023-03-31T03:10:38.977Z,8.3786
2023-03-31T03:11:39.133Z,8.3768
2023-03-31T03:12:39.272Z,8.4068
2023-03-31T03:13:39.482Z,8.3273
2023-03-31T03:14:39.687Z,8.3438
2023-03-31T03:15:39.848Z,8.3532
2023-03-31T03:16:40.114Z,8.3523
2023-03-31T03:17:40.319Z,8.2705
2023-03-31T03:18:40.494Z,8.2067
2023-03-31T03:19:40.713Z,8.2594
2023-03-31T03:20:40.829Z,8.2300
2023-03-31T03:21:41.058Z,8.3066
2023-03-31T03:22:41.267Z,8.2953
2023-03-31T03:23:41.469Z,8.3156
2023-03-31T03:24:41.614Z,8.3061
2023-03-31T03:25:41.905Z,8.2798
2023-03-31T03:26:42.088Z,8.3134
2023-03-31T03:27:42.243Z,8.2873
2023-03-31T03:28:42.403Z,8.3329
2023-03-31T03:29:42.587Z,8.3330
2023-03-31T03:30:42.770Z,8.3030
2023-03-31T03:31:42.939Z,8.2566
2023-03-31T03:32:43.175Z,8.2739
2023-03-31T03:33:43.540Z,8.3964
2023-03-31T03:34:43.754Z,8.3897
2023-03-31T03:35:43.963Z,8.3868
2023-03-31T03:36:44.133Z,8.3787
2023-03-31T03:37:44.343Z,8.3965
2023-03-31T03:38:44.513Z,8.3696
2023-03-31T03:39:44.642Z,8.3390
2023-03-31T03:40:44.789Z,8.3814
2023-03-31T03:41:45.000Z,8.3786
2023-03-31T03:42:45.162Z,8.4326
2023-03-31T03:43:45.352Z,8.5074
2023-03-31T03:44:45.456Z,8.5389
2023-03-31T03:45:45.608Z,8.6278
2023-03-31T03:46:45.799Z,8.7127
2023-03-31T03:47:46.089Z,8.6846
2023-03-31T03:48:46.342Z,8.6023
2023-03-31T03:49:46.465Z,8.5894
2023-03-31T03:50:46.628Z,8.6368
2023-03-31T03:51:46.762Z,8.5475
2023-03-31T03:52:46.916Z,8.4600
2023-03-31T03:53:47.121Z,8.4385
2023-03-31T03:54:47.328Z,8.4931
2023-03-31T03:55:47.466Z,8.4731
2023-03-31T03:56:47.658Z,8.4917
2023-03-31T03:57:47.842Z,8.5483
2023-03-31T03:58:48.018Z,8.5648
2023-03-31T03:59:48.172Z,8.5700
2023-03-31T04:00:48.498Z,8.4998
2023-03-31T04:01:48.714Z,8.4049
2023-03-31T04:02:48.881Z,8.3892
2023-03-31T04:03:49.117Z,8.3451
2023-03-31T04:04:49.320Z,8.3443
2023-03-31T04:05:49.508Z,8.4097
2023-03-31T04:06:49.732Z,8.3651
2023-03-31T04:07:50.823Z,8.2910
2023-03-31T04:08:51.076Z,8.2995
2023-03-31T04:09:51.292Z,8.3677
2023-03-31T04:10:51.455Z,8.3796
2023-03-31T04:11:51.618Z,8.4012
2023-03-31T04:22:09.008Z,8.3975
2023-03-31T04:23:09.972Z,8.4583
2023-03-31T04:24:10.187Z,8.4060
2023-03-31T04:25:10.647Z,8.4271
2023-03-31T04:26:10.882Z,8.3914
2023-03-31T04:27:11.318Z,8.4700
2023-03-31T04:28:11.639Z,8.5894
2023-03-31T04:29:11.925Z,8.5090
2023-03-31T04:30:12.220Z,8.4709
2023-03-31T04:31:12.517Z,8.3781
2023-03-31T04:32:12.818Z,8.2919
2023-03-31T04:33:13.104Z,8.2888
2023-03-31T04:34:13.696Z,8.3863
2023-03-31T04:35:14.207Z,8.4443
2023-03-31T04:36:14.676Z,8.3897
2023-03-31T04:37:14.940Z,8.3746
2023-03-31T04:38:15.078Z,8.3237
2023-03-31T04:39:15.445Z,8.3022
2023-03-31T04:40:15.623Z,8.2594
2023-03-31T04:41:15.922Z,8.1836
2023-03-31T04:42:16.151Z,8.2612
2023-03-31T04:43:16.404Z,8.4058
2023-03-31T04:44:16.637Z,8.4045
2023-03-31T04:45:16.859Z,8.4273
2023-03-31T04:46:17.158Z,8.4560
2023-03-31T04:47:17.415Z,8.3767
2023-03-31T04:48:17.625Z,8.4098
2023-03-31T04:49:17.886Z,8.4061
2023-03-31T04:50:18.117Z,8.3895
2023-03-31T04:51:18.315Z,8.3416
2023-03-31T04:52:18.563Z,8.3771
2023-03-31T04:53:18.827Z,8.3656
2023-03-31T04:54:19.072Z,8.3854
2023-03-31T04:55:19.264Z,8.3292
2023-03-31T04:56:19.556Z,8.3408
2023-03-31T04:57:19.842Z,8.3727
2023-03-31T04:58:20.112Z,8.3683
2023-03-31T04:59:20.344Z,8.3777
2023-03-31T05:00:20.644Z,8.3737
2023-03-31T05:01:20.928Z,8.4114
2023-03-31T05:02:22.958Z,8.4086
2023-03-31T05:04:22.680Z,8.4119
2023-03-31T05:05:23.070Z,8.4563
2023-03-31T05:06:23.317Z,8.4178
2023-03-31T05:07:23.534Z,8.4166
2023-03-31T05:08:23.869Z,8.4275
2023-03-31T05:09:24.165Z,8.3646
2023-03-31T05:10:24.492Z,8.3785
2023-03-31T05:11:24.785Z,8.5092
2023-03-31T05:12:25.056Z,8.5420
2023-03-31T05:13:25.397Z,8.5898
2023-03-31T05:14:25.636Z,8.6754
2023-03-31T05:15:25.848Z,8.6707
2023-03-31T05:16:26.143Z,8.5732
2023-03-31T05:17:26.449Z,8.8928
2023-03-31T05:18:26.675Z,9.1098
2023-03-31T05:19:26.938Z,9.1973
2023-03-31T05:20:27.220Z,9.3507
2023-03-31T05:21:27.475Z,9.4810
2023-03-31T05:22:27.784Z,9.5383
2023-03-31T05:23:28.036Z,9.4010
2023-03-31T05:24:28.297Z,9.2991
2023-03-31T05:25:28.585Z,9.4939
2023-03-31T05:26:28.856Z,9.4101
2023-03-31T05:27:29.091Z,9.3157
2023-03-31T05:28:30.797Z,9.4281
2023-03-31T05:29:29.447Z,9.4269
2023-03-31T05:30:29.704Z,9.3790
2023-03-31T05:31:30.003Z,9.3996
2023-03-31T05:32:30.218Z,9.3585
2023-03-31T05:33:30.469Z,9.2928
2023-03-31T05:34:30.710Z,9.3288
2023-03-31T05:35:30.976Z,9.2572
2023-03-31T05:36:31.250Z,9.0904
2023-03-31T05:37:31.505Z,9.0262
2023-03-31T05:38:31.894Z,8.9481
2023-03-31T05:39:32.180Z,8.8870
2023-03-31T05:40:32.485Z,8.8393
2023-03-31T05:41:32.762Z,8.9101
2023-03-31T05:42:33.001Z,8.8834
2023-03-31T05:43:33.248Z,9.0104
2023-03-31T05:44:33.618Z,9.1329
2023-03-31T05:45:33.993Z,9.1962
2023-03-31T05:46:34.329Z,9.1966
2023-03-31T05:47:34.718Z,9.1887
2023-03-31T05:48:35.083Z,9.1788
2023-03-31T05:49:35.331Z,9.1925
2023-03-31T05:50:35.577Z,9.2097
2023-03-31T05:51:35.893Z,9.4258
2023-03-31T05:52:36.122Z,9.5735
2023-03-31T05:53:36.363Z,9.5014
2023-03-31T05:54:36.682Z,9.5075
2023-03-31T05:55:36.957Z,9.4501
2023-03-31T05:56:37.262Z,9.4392
2023-03-31T05:57:37.585Z,9.4996
2023-03-31T05:58:37.861Z,9.5339
2023-03-31T05:59:38.145Z,9.5445
2023-03-31T06:00:38.413Z,9.5915
2023-03-31T06:01:38.796Z,9.5501
2023-03-31T06:02:39.237Z,9.5717
2023-03-31T06:03:39.600Z,9.6067
2023-03-31T06:04:40.046Z,9.6022
2023-03-31T06:05:40.265Z,9.5378
2023-03-31T06:06:40.526Z,9.4972
2023-03-31T06:07:40.809Z,9.5714
2023-03-31T06:08:41.106Z,9.5856
2023-03-31T06:09:41.364Z,9.5759
2023-03-31T06:10:41.613Z,9.6230
2023-03-31T06:11:41.851Z,9.6014
2023-03-31T06:12:42.173Z,9.5798
2023-03-31T06:13:42.464Z,9.5971
2023-03-31T06:14:42.726Z,9.6699
2023-03-31T06:15:43.002Z,9.8707
2023-03-31T06:16:43.264Z,9.9991
2023-03-31T06:17:43.642Z,9.9179
2023-03-31T06:18:43.901Z,10.0345
2023-03-31T06:19:44.177Z,10.0912
2023-03-31T06:20:44.504Z,10.0047
2023-03-31T06:21:44.760Z,10.0730
2023-03-31T06:22:45.054Z,10.2625
2023-03-31T06:23:45.324Z,10.2022
2023-03-31T06:24:45.590Z,10.1951
2023-03-31T06:26:45.910Z,10.2418
2023-03-31T06:27:46.167Z,10.2370
2023-03-31T06:28:46.509Z,10.3396
2023-03-31T06:29:46.826Z,10.3589
2023-03-31T06:30:47.127Z,10.2691
2023-03-31T06:31:47.504Z,10.2818
2023-03-31T06:32:47.820Z,10.3176
2023-03-31T06:33:48.113Z,10.4362
2023-03-31T06:34:48.373Z,10.5473
2023-03-31T06:35:48.689Z,10.4836
2023-03-31T06:36:48.918Z,10.5566
2023-03-31T06:37:49.204Z,10.6073
2023-03-31T06:38:49.531Z,10.6854
2023-03-31T06:39:49.765Z,10.7835
2023-03-31T06:40:50.044Z,10.9383
2023-03-31T06:41:50.284Z,10.8988
2023-03-31T06:42:50.551Z,11.0159
2023-03-31T06:43:50.852Z,10.9907
2023-03-31T06:44:51.095Z,10.9850
2023-03-31T06:45:53.779Z,10.9417
2023-03-31T06:46:51.999Z,10.9004
2023-03-31T06:48:52.360Z,10.9842
2023-03-31T06:49:52.610Z,11.0026
2023-03-31T06:50:52.937Z,11.0120
2023-03-31T06:52:53.369Z,11.1673
2023-03-31T06:53:53.653Z,11.1176
2023-03-31T06:54:53.906Z,11.1571
2023-03-31T06:56:54.652Z,11.3216
2023-03-31T06:57:55.320Z,11.3550
2023-03-31T06:58:55.617Z,11.3562
2023-03-31T06:59:55.904Z,11.4141
2023-03-31T07:00:56.149Z,11.4559
2023-03-31T07:01:56.499Z,11.4426
2023-03-31T07:02:56.907Z,11.4180
2023-03-31T07:03:57.163Z,11.3869
2023-03-31T07:04:57.422Z,11.3759
2023-03-31T07:05:57.710Z,11.4249
2023-03-31T07:06:57.954Z,11.5101
2023-03-31T07:07:58.198Z,11.5305
2023-03-31T07:08:58.488Z,11.5774
2023-03-31T07:09:58.791Z,11.7318
2023-03-31T07:10:59.080Z,11.7316
2023-03-31T07:12:59.438Z,11.8168
2023-03-31T07:13:59.693Z,11.9277
2023-03-31T07:16:00.453Z,12.0900
2023-03-31T07:17:00.823Z,12.1447
2023-03-31T07:18:01.113Z,12.0885
2023-03-31T07:19:01.440Z,12.1161
2023-03-31T07:20:01.720Z,12.1963
2023-03-31T07:21:01.980Z,12.2733
2023-03-31T07:22:02.349Z,12.4097
2023-03-31T07:23:02.649Z,12.3564
2023-03-31T07:24:02.975Z,12.3886
2023-03-31T07:25:03.288Z,12.4905
2023-03-31T07:26:03.561Z,12.5402
2023-03-31T07:27:03.890Z,12.4708
2023-03-31T07:28:04.179Z,12.5424
2023-03-31T07:29:04.443Z,12.5456
2023-03-31T07:30:04.649Z,12.4442
2023-03-31T07:31:05.137Z,12.4515
2023-03-31T07:32:05.731Z,12.4654
2023-03-31T07:33:05.981Z,12.4330
2023-03-31T07:34:06.285Z,12.4486
2023-03-31T07:35:06.528Z,12.4204
2023-03-31T07:36:12.575Z,12.3398
2023-03-31T07:38:08.356Z,12.3813
2023-03-31T07:39:08.622Z,12.3743
2023-03-31T07:40:08.888Z,12.3895
2023-03-31T07:41:10.023Z,12.2758
2023-03-31T07:42:10.808Z,12.3597
2023-03-31T07:43:11.090Z,12.3955
2023-03-31T07:44:11.394Z,12.7416
2023-03-31T07:45:11.718Z,12.7764
2023-03-31T07:46:11.963Z,12.7805
2023-03-31T07:47:12.267Z,12.7606
2023-03-31T07:48:12.620Z,12.6874
2023-03-31T07:49:12.868Z,12.6721
2023-03-31T07:50:13.161Z,12.7146
2023-03-31T07:51:13.398Z,12.7236
2023-03-31T07:52:13.691Z,12.6878
2023-03-31T07:54:14.008Z,12.6370
2023-03-31T07:55:14.323Z,12.6150
2023-03-31T07:56:14.563Z,12.5354
2023-03-31T09:42:50.574Z,14.1566
2023-03-31T09:43:51.158Z,13.9994
2023-03-31T09:45:18.185Z,14.1246
2023-03-31T09:46:18.792Z,14.1902
2023-03-31T09:47:19.078Z,14.1675
2023-03-31T09:48:56.779Z,14.1224
2023-03-31T09:49:57.121Z,14.0670
2023-03-31T09:50:57.210Z,14.2332
2023-03-31T09:51:57.365Z,14.4629
2023-03-31T09:52:57.610Z,14.4783
2023-03-31T09:53:57.732Z,14.4940
2023-03-31T09:54:58.024Z,14.6308
2023-03-31T09:55:58.139Z,15.2413
2023-03-31T09:56:58.301Z,15.2351
2023-03-31T09:57:58.470Z,15.0714
2023-03-31T09:58:58.621Z,14.4283
2023-03-31T09:59:58.800Z,14.8152
2023-03-31T10:00:58.965Z,14.0692
2023-03-31T10:01:59.327Z,14.1821
2023-03-31T10:02:59.569Z,14.6140
2023-03-31T10:03:59.851Z,14.3615
2023-03-31T10:05:00.014Z,14.3885
2023-03-31T10:06:00.169Z,14.3388
2023-03-31T10:07:00.357Z,14.4746
2023-03-31T10:08:00.573Z,14.7223
2023-03-31T10:09:00.684Z,14.2356
2023-03-31T10:10:00.953Z,13.8160
2023-03-31T10:11:01.138Z,13.9435
2023-03-31T10:12:01.389Z,14.1828
2023-03-31T10:13:01.570Z,14.1571
2023-03-31T10:14:01.734Z,13.8040
2023-03-31T10:15:02.016Z,13.7211
2023-03-31T10:16:02.189Z,14.0547
2023-03-31T10:17:02.383Z,14.4583
2023-03-31T10:18:02.558Z,14.6283
2023-03-31T10:19:02.757Z,14.3745
2023-03-31T10:20:02.956Z,14.4611
2023-03-31T10:21:03.177Z,14.6345
2023-03-31T10:22:03.524Z,14.5400
2023-03-31T10:23:05.902Z,14.3355
2023-03-31T10:24:06.139Z,14.1419
2023-03-31T10:25:06.404Z,14.6048
2023-03-31T10:26:06.562Z,14.6538
2023-03-31T10:27:06.700Z,14.9776
2023-03-31T10:28:06.928Z,15.7546
2023-03-31T10:29:07.054Z,15.9547
2023-03-31T10:30:07.227Z,15.1269
2023-03-31T10:31:07.619Z,15.0991
2023-03-31T10:32:07.920Z,15.3469
2023-03-31T10:33:19.015Z,14.8822
2023-03-31T10:34:09.532Z,15.1725
2023-03-31T10:35:09.677Z,15.0147
2023-03-31T10:36:10.086Z,14.6610
2023-03-31T10:37:10.197Z,14.4442
2023-03-31T10:38:10.400Z,14.2224
2023-03-31T10:39:10.565Z,13.6984
2023-03-31T10:40:10.744Z,13.5961
2023-03-31T10:41:11.002Z,13.3181
2023-03-31T10:42:11.225Z,13.2358
2023-03-31T10:43:11.397Z,13.2219
2023-03-31T10:44:12.352Z,13.1597
2023-03-31T10:46:13.023Z,13.2105
2023-03-31T10:47:13.271Z,13.1067
2023-03-31T10:48:13.464Z,13.0838
2023-03-31T10:49:13.597Z,12.7907
2023-03-31T10:50:13.811Z,12.4972
2023-03-31T10:51:14.858Z,12.3702
2023-03-31T10:52:15.101Z,12.2312
2023-03-31T10:53:15.249Z,11.8376
2023-03-31T10:54:15.402Z,11.8771
2023-03-31T10:55:16.599Z,11.9160
2023-03-31T10:56:16.708Z,11.8630
2023-03-31T10:57:16.889Z,11.8139
2023-03-31T10:58:17.023Z,11.8799
2023-03-31T10:59:17.179Z,11.9181
2023-03-31T11:00:17.398Z,11.8738
2023-03-31T11:01:17.517Z,11.7337
2023-03-31T11:02:17.706Z,11.6824
2023-03-31T11:03:18.081Z,11.8094
2023-03-31T11:04:18.384Z,11.5938
2023-03-31T11:05:18.570Z,11.0349
2023-03-31T11:06:18.747Z,10.6709
2023-03-31T11:07:18.990Z,10.5611
2023-03-31T11:08:20.036Z,10.6452
2023-03-31T11:09:20.510Z,10.7911
2023-03-31T11:10:20.716Z,10.9233
2023-03-31T11:11:20.893Z,11.1306
2023-03-31T11:12:21.114Z,11.3281
2023-03-31T11:13:21.345Z,11.6027
2023-03-31T11:14:21.503Z,11.8703
2023-03-31T11:15:21.726Z,11.9816
2023-03-31T11:16:22.052Z,12.1346
2023-03-31T11:17:22.633Z,12.0822
2023-03-31T11:18:34.066Z,12.2836
2023-03-31T11:19:24.698Z,12.3410
2023-03-31T11:20:24.979Z,12.3820
2023-03-31T11:21:25.839Z,12.2365
2023-03-31T11:22:26.016Z,12.2151
2023-03-31T11:23:26.201Z,12.1492
2023-03-31T11:24:26.409Z,12.2089
2023-03-31T11:25:28.532Z,12.2823
2023-03-31T11:26:30.798Z,12.2336
2023-03-31T11:27:31.360Z,12.2909
2023-03-31T11:28:31.659Z,12.1454
2023-03-31T11:29:31.915Z,12.1250
2023-03-31T11:30:32.539Z,12.3038
2023-03-31T11:31:32.716Z,12.3632
2023-03-31T11:32:33.034Z,12.5463
2023-03-31T11:33:33.372Z,12.6403
2023-03-31T11:34:33.703Z,12.6170
2023-03-31T11:35:33.938Z,12.6671
2023-03-31T11:36:34.284Z,12.6754
2023-03-31T11:37:34.454Z,12.6552
2023-03-31T11:38:34.753Z,12.6898
2023-03-31T11:39:35.016Z,12.6747
2023-03-31T11:40:35.279Z,12.6838
2023-03-31T11:41:35.516Z,12.6999
2023-03-31T11:42:35.869Z,12.7550
2023-03-31T11:43:37.449Z,12.8567
2023-03-31T11:44:38.817Z,12.9277
2023-03-31T11:45:39.202Z,13.0211
2023-03-31T11:46:39.591Z,13.2211
2023-03-31T11:47:39.845Z,13.3056
2023-03-31T11:48:40.082Z,13.4918
2023-03-31T11:49:40.365Z,13.5539
2023-03-31T11:50:40.576Z,13.6172
2023-03-31T11:51:40.796Z,13.6432
2023-03-31T11:52:41.033Z,13.7030
2023-03-31T11:53:41.259Z,13.6787
2023-03-31T11:54:41.495Z,13.7159
2023-03-31T11:55:41.718Z,13.6949
2023-03-31T11:56:41.901Z,13.7314
2023-03-31T11:57:42.139Z,13.7070
2023-03-31T11:58:45.258Z,13.7897
2023-03-31T11:59:45.314Z,13.8678
2023-03-31T12:00:47.132Z,13.8689
2023-03-31T12:01:48.985Z,13.8376
2023-03-31T12:02:50.862Z,13.7686
2023-03-31T12:03:52.901Z,13.7363
2023-03-31T12:04:54.791Z,13.7035
2023-03-31T12:05:56.735Z,13.6870
2023-03-31T12:06:59.757Z,13.6659
2023-03-31T12:07:59.349Z,13.6165
2023-03-31T12:09:01.241Z,13.6247
2023-03-31T12:10:03.182Z,13.6311
2023-03-31T12:11:05.037Z,13.6195
2023-03-31T12:12:06.922Z,13.5766
2023-03-31T12:13:08.803Z,13.5556
2023-03-31T12:14:10.723Z,13.3529
2023-03-31T12:15:12.599Z,12.9883
2023-03-31T12:16:14.556Z,12.7180
2023-03-31T12:17:16.446Z,12.2317
2023-03-31T12:18:18.295Z,11.9603
2023-03-31T12:19:20.201Z,11.6403
2023-03-31T12:20:22.069Z,11.3411
2023-03-31T12:21:23.954Z,11.1401
2023-03-31T12:22:26.162Z,10.9342
2023-03-31T12:23:28.086Z,10.9392
2023-03-31T12:24:29.977Z,10.8998
2023-03-31T12:25:32.942Z,10.3777
2023-03-31T12:26:32.099Z,9.2864
2023-03-31T12:27:33.982Z,8.9341
2023-03-31T12:28:35.865Z,9.0796
2023-03-31T12:29:37.778Z,9.2945
2023-03-31T12:30:39.662Z,9.4120
2023-03-31T12:31:41.576Z,9.5412
2023-03-31T12:32:43.553Z,9.7779
2023-03-31T12:33:45.417Z,9.9410
2023-03-31T12:34:47.306Z,10.3464
2023-03-31T12:35:49.251Z,10.5879
2023-03-31T12:36:52.422Z,10.5405
2023-03-31T12:37:52.554Z,10.7568
2023-03-31T12:38:54.427Z,11.0413
2023-03-31T12:39:56.315Z,10.7585
2023-03-31T12:40:58.198Z,10.9400
2023-03-31T12:42:00.039Z,10.3504
2023-03-31T12:43:01.915Z,10.4426
2023-03-31T12:44:03.799Z,10.4337
2023-03-31T12:45:05.677Z,10.4218
2023-03-31T12:46:07.805Z,10.5310
2023-03-31T12:47:10.123Z,10.6267
2023-03-31T12:48:12.063Z,10.7106
2023-03-31T12:49:13.914Z,10.6752
2023-03-31T12:50:15.760Z,10.6818
2023-03-31T12:51:17.617Z,10.6419
2023-03-31T12:52:19.536Z,10.6765
2023-03-31T12:53:21.349Z,10.8030
2023-03-31T12:54:23.185Z,11.0097
2023-03-31T12:55:25.074Z,10.9122
2023-03-31T12:56:26.940Z,11.0403
2023-03-31T12:57:28.903Z,11.0953
2023-03-31T12:58:32.962Z,11.0164
2023-03-31T12:59:31.654Z,11.3073
2023-03-31T13:00:33.544Z,11.3186
2023-03-31T13:01:35.466Z,11.2606
2023-03-31T13:02:37.419Z,11.0858
2023-03-31T13:03:39.313Z,11.4205
2023-03-31T13:04:41.156Z,11.4166
2023-03-31T13:05:43.018Z,11.3383
2023-03-31T13:06:45.059Z,11.6773
2023-03-31T13:07:46.925Z,11.6217
2023-03-31T13:08:46.922Z,11.7216
2023-03-31T13:09:48.772Z,11.6101
2023-03-31T13:10:50.709Z,11.4565
2023-03-31T13:11:52.838Z,11.4470
2023-03-31T13:12:54.728Z,11.5159
2023-03-31T13:14:00.604Z,11.4686
2023-03-31T13:14:59.391Z,11.5001
2023-03-31T13:16:01.291Z,11.5010
2023-03-31T13:17:03.429Z,11.4542
2023-03-31T13:18:05.318Z,11.5114
2023-03-31T13:19:07.235Z,11.6128
2023-03-31T13:20:09.122Z,11.5116
2023-03-31T13:21:11.010Z,11.3926
2023-03-31T13:22:12.873Z,11.4205
2023-03-31T13:23:14.753Z,11.4141
2023-03-31T13:24:16.789Z,11.4588
2023-03-31T13:25:18.641Z,11.3343
2023-03-31T13:26:20.540Z,11.2526
2023-03-31T13:27:22.441Z,11.3330
2023-03-31T13:28:24.279Z,11.2094
2023-03-31T13:29:26.135Z,11.0300
2023-03-31T13:30:27.998Z,11.1076
2023-03-31T13:31:29.889Z,11.0174
2023-03-31T13:32:31.785Z,11.0363
2023-03-31T13:33:33.648Z,10.8186
2023-03-31T13:34:35.536Z,10.7301
2023-03-31T13:35:37.413Z,10.7010
2023-03-31T13:36:39.282Z,10.7492
2023-03-31T13:37:41.164Z,10.7812
2023-03-31T13:38:43.078Z,10.7379
2023-03-31T13:39:44.970Z,10.7366
2023-03-31T13:40:46.852Z,10.7353
2023-03-31T13:41:48.758Z,10.7658
2023-03-31T13:42:50.652Z,10.8281
2023-03-31T13:43:52.522Z,10.9128
2023-03-31T13:44:54.419Z,10.9103
2023-03-31T13:45:56.390Z,11.1873
2023-03-31T13:46:58.482Z,11.3635
2023-03-31T13:48:00.469Z,11.3442
2023-03-31T13:49:02.345Z,11.4214
2023-03-31T13:50:04.215Z,11.6019
2023-03-31T13:51:06.078Z,11.6458
2023-03-31T13:52:07.955Z,11.7702
2023-03-31T13:53:09.803Z,11.9241
2023-03-31T13:54:11.913Z,11.9286
2023-03-31T13:55:15.758Z,11.9764
2023-03-31T13:56:15.011Z,12.1033
2023-03-31T13:57:16.972Z,12.2185
2023-03-31T13:58:29.998Z,12.2918
2023-03-31T13:59:19.745Z,12.3316
2023-03-31T14:00:21.615Z,12.2799
2023-03-31T14:01:23.549Z,12.3290
2023-03-31T14:02:25.485Z,12.6404
2023-03-31T14:03:27.398Z,12.6662
2023-03-31T14:04:29.278Z,12.5365
2023-03-31T14:05:31.130Z,12.8846
2023-03-31T14:06:32.993Z,13.3060
2023-03-31T14:07:34.894Z,13.7217
2023-03-31T14:08:36.749Z,13.7320
2023-03-31T14:09:38.607Z,13.9818
2023-03-31T14:10:40.471Z,13.6831
2023-03-31T14:11:42.389Z,13.6952
2023-03-31T14:12:44.231Z,13.9959
2023-03-31T14:13:46.290Z,13.5051
2023-03-31T14:14:48.137Z,13.7159
2023-03-31T14:15:50.060Z,13.7380
2023-03-31T14:16:51.883Z,14.1208
2023-03-31T14:17:53.824Z,14.2185
2023-03-31T14:18:55.653Z,14.4498
2023-03-31T14:19:57.545Z,14.2635
2023-03-31T14:20:59.405Z,13.9362
2023-03-31T14:22:01.255Z,13.4120
2023-03-31T14:23:03.172Z,13.2810
2023-03-31T14:24:05.031Z,13.6898
2023-03-31T14:25:06.908Z,14.2635
2023-03-31T14:26:08.844Z,14.1530
2023-03-31T14:27:10.737Z,13.0647
2023-03-31T14:28:12.631Z,12.5892
2023-03-31T14:29:14.517Z,12.3588
2023-03-31T14:30:16.398Z,12.3048
2023-03-31T14:31:18.277Z,12.3972
2023-03-31T14:32:20.204Z,12.3001
2023-03-31T14:33:22.058Z,12.2806